Time;durP1;ratioP1;P1;durP2;ratioP2;P2;SDS_P1;SDS_P2;PMS_P1;PMS_P2;Temp;Humidity;BMP_temperature;BMP_pressure;BME280_temperature;BME280_humidity;BME280_pressure;Samples;Min_cycle;Max_cycle;Signal;HPM_P1;HPM_P2
2023/06/15 00:00:46;;;;;;;3.83;3.53;;;15.30;96.60;;;;;;488062;243;28800;-76
2023/06/15 00:02:47;;;;;;;4.37;3.20;;;15.30;96.70;;;;;;488084;243;28879;-77
2023/06/15 00:04:48;;;;;;;6.47;4.07;;;15.30;96.80;;;;;;488128;243;28856;-76
2023/06/15 00:06:50;;;;;;;9.23;3.87;;;15.30;96.90;;;;;;488089;243;29280;-77
2023/06/15 00:08:51;;;;;;;5.80;4.13;;;15.30;96.90;;;;;;488106;243;29432;-77
2023/06/15 00:10:52;;;;;;;4.10;3.60;;;15.40;97.10;;;;;;488078;243;29393;-75
2023/06/15 00:12:53;;;;;;;4.03;3.73;;;15.40;97.10;;;;;;488099;243;29457;-76
2023/06/15 00:14:56;;;;;;;4.80;3.53;;;15.30;97.10;;;;;;488123;243;28852;-76
2023/06/15 00:16:57;;;;;;;5.20;3.50;;;15.30;97.20;;;;;;488062;243;28784;-76
2023/06/15 00:18:57;;;;;;;4.07;3.43;;;15.30;97.50;;;;;;488007;243;28934;-76
2023/06/15 00:21:00;;;;;;;3.70;3.40;;;15.30;97.60;;;;;;488072;243;28804;-76
2023/06/15 00:23:00;;;;;;;4.53;3.23;;;15.30;97.60;;;;;;487946;243;28823;-76
2023/06/15 00:25:01;;;;;;;4.00;3.60;;;15.30;97.70;;;;;;488109;243;29201;-75
2023/06/15 00:27:02;;;;;;;4.20;3.80;;;15.20;97.50;;;;;;488101;243;28792;-77
2023/06/15 00:29:03;;;;;;;3.97;3.67;;;15.20;97.60;;;;;;488090;243;28947;-77
2023/06/15 00:31:17;;;;;;;3.77;3.47;;;15.20;97.70;;;;;;488029;243;29273;-75
2023/06/15 00:33:18;;;;;;;5.80;3.30;;;15.20;97.70;;;;;;487952;243;29331;-76
2023/06/15 00:35:19;;;;;;;6.30;3.63;;;15.10;97.80;;;;;;488052;243;29385;-76
2023/06/15 00:37:20;;;;;;;5.63;3.47;;;15.10;97.90;;;;;;488071;243;28817;-76
2023/06/15 00:39:22;;;;;;;4.50;3.70;;;15.00;97.90;;;;;;488092;243;28934;-77
2023/06/15 00:41:23;;;;;;;5.00;4.17;;;15.00;97.90;;;;;;488068;243;28899;-76
2023/06/15 00:43:25;;;;;;;4.80;4.37;;;15.00;98.00;;;;;;488073;243;28914;-76
2023/06/15 00:45:25;;;;;;;3.77;3.47;;;15.00;98.10;;;;;;488092;243;29218;-76
2023/06/15 00:47:27;;;;;;;3.33;3.10;;;14.90;98.20;;;;;;488075;243;28852;-76
2023/06/15 00:49:28;;;;;;;4.00;3.43;;;15.00;98.20;;;;;;488051;243;28860;-76
2023/06/15 00:51:29;;;;;;;4.33;3.80;;;15.00;98.10;;;;;;488087;243;28818;-76
2023/06/15 00:53:30;;;;;;;5.63;3.57;;;15.00;98.30;;;;;;488044;243;28836;-76
2023/06/15 00:55:32;;;;;;;3.50;3.20;;;15.00;98.30;;;;;;488068;243;29398;-76
2023/06/15 00:57:34;;;;;;;3.87;3.47;;;14.90;98.40;;;;;;488082;243;29245;-76
2023/06/15 00:59:34;;;;;;;5.23;4.00;;;14.90;98.50;;;;;;488004;243;29481;-77
2023/06/15 01:01:35;;;;;;;4.20;3.90;;;14.80;98.50;;;;;;488039;243;28831;-76
2023/06/15 01:03:40;;;;;;;4.53;3.97;;;14.90;98.60;;;;;;488036;243;28817;-76
2023/06/15 01:05:38;;;;;;;5.33;3.60;;;14.80;98.60;;;;;;487803;243;28850;-77
2023/06/15 01:07:40;;;;;;;3.53;3.23;;;14.90;98.60;;;;;;488093;243;28797;-76
2023/06/15 01:09:41;;;;;;;6.00;4.00;;;14.80;98.70;;;;;;488047;243;28824;-76
2023/06/15 01:11:42;;;;;;;4.10;3.80;;;14.80;98.90;;;;;;488062;243;28814;-76
2023/06/15 01:13:43;;;;;;;4.73;3.43;;;14.80;98.90;;;;;;488018;243;28851;-76
2023/06/15 01:15:44;;;;;;;4.80;3.37;;;14.80;99.10;;;;;;488019;243;28854;-77
2023/06/15 01:17:46;;;;;;;4.60;3.53;;;14.80;99.10;;;;;;488052;243;28983;-77
2023/06/15 01:20:08;;;;;;;4.03;3.50;;;14.80;99.00;;;;;;488057;243;29427;-75
2023/06/15 01:21:48;;;;;;;3.97;3.57;;;14.80;99.10;;;;;;485416;243;29276;-76
2023/06/15 01:23:50;;;;;;;9.17;3.40;;;14.80;99.20;;;;;;488049;243;29338;-76
2023/06/15 01:25:53;;;;;;;3.30;3.03;;;14.80;99.20;;;;;;487970;243;29315;-76
2023/06/15 01:27:52;;;;;;;4.13;3.83;;;14.80;99.40;;;;;;487889;243;28927;-76
2023/06/15 01:29:54;;;;;;;3.40;3.10;;;14.70;99.40;;;;;;488090;243;28928;-76
2023/06/15 01:31:56;;;;;;;3.50;3.20;;;14.70;99.50;;;;;;488000;243;28832;-76
2023/06/15 01:33:56;;;;;;;3.80;3.50;;;14.60;99.70;;;;;;487897;243;28864;-76
2023/06/15 01:35:57;;;;;;;4.53;3.43;;;14.70;99.70;;;;;;488042;243;28796;-76
2023/06/15 01:37:58;;;;;;;3.40;3.10;;;14.60;99.70;;;;;;488051;243;28937;-76
2023/06/15 01:39:59;;;;;;;3.90;3.60;;;14.60;99.80;;;;;;488085;243;28856;-76
2023/06/15 01:42:01;;;;;;;4.10;3.70;;;14.50;99.90;;;;;;488055;243;28811;-76
2023/06/15 01:44:02;;;;;;;4.40;4.00;;;14.30;99.90;;;;;;488079;243;28853;-77
2023/06/15 01:46:03;;;;;;;4.13;3.70;;;14.20;99.90;;;;;;488056;243;29260;-76
2023/06/15 01:48:04;;;;;;;4.90;4.40;;;14.00;99.90;;;;;;488074;243;29417;-76
2023/06/15 01:50:06;;;;;;;3.97;3.67;;;13.80;99.90;;;;;;488073;243;29337;-77
2023/06/15 01:52:07;;;;;;;5.57;4.13;;;13.70;99.90;;;;;;488145;243;28792;-76
2023/06/15 01:54:08;;;;;;;4.20;3.70;;;13.70;99.90;;;;;;488085;243;28832;-75
2023/06/15 01:56:09;;;;;;;4.27;3.87;;;13.60;99.90;;;;;;487797;243;28855;-76
2023/06/15 01:58:11;;;;;;;6.97;4.07;;;13.40;99.90;;;;;;487816;243;28838;-76
2023/06/15 02:00:12;;;;;;;4.73;4.13;;;13.40;99.90;;;;;;488077;243;29196;-76
2023/06/15 02:02:13;;;;;;;7.93;4.10;;;13.10;99.90;;;;;;488046;243;28916;-76
2023/06/15 02:04:14;;;;;;;5.40;4.40;;;13.10;99.90;;;;;;488110;243;28861;-77
2023/06/15 02:06:16;;;;;;;4.70;4.30;;;12.90;99.90;;;;;;488091;243;28800;-76
2023/06/15 02:08:17;;;;;;;4.87;4.47;;;12.80;99.90;;;;;;488093;243;28838;-76
2023/06/15 02:10:18;;;;;;;4.40;4.00;;;12.70;99.90;;;;;;488113;243;29042;-77
2023/06/15 02:12:20;;;;;;;6.40;4.57;;;12.70;99.90;;;;;;488099;243;29275;-75
2023/06/15 02:14:21;;;;;;;4.90;4.50;;;12.70;99.90;;;;;;488091;243;29394;-75
2023/06/15 02:16:22;;;;;;;4.67;4.20;;;12.70;99.90;;;;;;488127;243;28837;-76
2023/06/15 02:18:23;;;;;;;5.50;4.63;;;12.70;99.90;;;;;;488109;243;28867;-76
2023/06/15 02:20:25;;;;;;;7.50;4.70;;;12.60;99.90;;;;;;488165;243;28437;-76
2023/06/15 02:22:26;;;;;;;4.73;4.30;;;12.70;99.90;;;;;;488128;243;28821;-76
2023/06/15 02:24:27;;;;;;;4.67;4.27;;;12.70;99.90;;;;;;488115;243;28895;-76
2023/06/15 02:26:28;;;;;;;4.40;4.00;;;12.70;99.90;;;;;;488093;243;28622;-76
2023/06/15 02:28:29;;;;;;;4.23;3.83;;;12.80;99.90;;;;;;488064;243;28544;-75
2023/06/15 02:30:31;;;;;;;5.17;4.67;;;12.80;99.90;;;;;;488072;243;28860;-76
2023/06/15 02:32:34;;;;;;;5.30;4.60;;;12.80;99.90;;;;;;488116;243;28803;-76
2023/06/15 02:34:33;;;;;;;4.30;4.00;;;12.80;99.90;;;;;;487937;243;28956;-76
2023/06/15 02:36:34;;;;;;;4.50;4.13;;;12.80;99.90;;;;;;488092;243;29030;-76
2023/06/15 02:38:37;;;;;;;5.43;4.47;;;12.70;99.90;;;;;;488077;243;28782;-76
2023/06/15 02:40:37;;;;;;;4.37;4.03;;;12.60;99.90;;;;;;488041;243;28955;-76
2023/06/15 02:42:38;;;;;;;5.10;4.60;;;12.60;99.90;;;;;;488090;243;28472;-76
2023/06/15 02:44:40;;;;;;;4.60;4.20;;;12.50;99.90;;;;;;488086;243;28412;-77
2023/06/15 02:46:41;;;;;;;6.10;4.27;;;12.50;99.90;;;;;;488081;243;28594;-76
2023/06/15 02:48:42;;;;;;;5.50;4.23;;;12.50;99.90;;;;;;488088;243;28550;-76
2023/06/15 02:50:43;;;;;;;5.27;4.33;;;12.60;99.90;;;;;;488075;243;28648;-76
2023/06/15 02:52:45;;;;;;;5.20;4.47;;;12.60;99.90;;;;;;488131;243;28292;-76
2023/06/15 02:54:46;;;;;;;5.30;4.90;;;12.50;99.90;;;;;;488054;243;28587;-76
2023/06/15 02:56:47;;;;;;;4.33;3.93;;;12.40;99.90;;;;;;488105;243;28377;-76
2023/06/15 02:58:53;;;;;;;4.57;4.17;;;12.40;99.90;;;;;;488105;243;28530;-75
2023/06/15 03:00:51;;;;;;;4.60;4.20;;;12.30;99.90;;;;;;487625;243;29021;-76
2023/06/15 03:02:52;;;;;;;4.80;4.40;;;12.30;99.90;;;;;;488063;243;29441;-75
2023/06/15 03:04:53;;;;;;;5.20;4.03;;;12.30;99.90;;;;;;488056;243;29094;-77
2023/06/15 03:06:56;;;;;;;4.73;4.33;;;12.40;99.90;;;;;;488078;243;28953;-76
2023/06/15 03:08:54;;;;;;;4.57;3.93;;;12.40;99.90;;;;;;487891;243;28558;-76
2023/06/15 03:10:56;;;;;;;4.47;4.07;;;12.30;99.90;;;;;;488131;243;28490;-75
2023/06/15 03:12:57;;;;;;;4.63;4.23;;;12.30;99.90;;;;;;488110;243;28455;-75
2023/06/15 03:15:01;;;;;;;4.33;4.03;;;12.30;99.90;;;;;;488126;243;28405;-76
2023/06/15 03:17:01;;;;;;;5.60;4.63;;;12.20;99.90;;;;;;487911;243;28290;-76
2023/06/15 03:19:01;;;;;;;4.53;4.23;;;12.20;99.90;;;;;;488028;243;28428;-76
2023/06/15 03:21:02;;;;;;;4.50;4.10;;;12.20;99.90;;;;;;488105;243;28347;-76
2023/06/15 03:23:03;;;;;;;6.10;4.37;;;12.20;99.90;;;;;;488064;243;28245;-76
2023/06/15 03:25:05;;;;;;;4.90;4.17;;;12.20;99.90;;;;;;488088;243;28220;-77
2023/06/15 03:27:06;;;;;;;4.50;4.10;;;12.10;99.90;;;;;;488046;243;28763;-76
2023/06/15 03:29:07;;;;;;;4.50;4.10;;;12.20;99.90;;;;;;488068;243;28906;-76
2023/06/15 03:31:08;;;;;;;4.90;4.27;;;12.20;99.90;;;;;;488083;243;28885;-76
2023/06/15 03:33:09;;;;;;;5.87;4.43;;;12.20;99.90;;;;;;488054;243;28429;-75
2023/06/15 03:35:12;;;;;;;8.30;5.00;;;12.20;99.90;;;;;;488077;243;28313;-76
2023/06/15 03:37:12;;;;;;;4.87;4.47;;;12.20;99.90;;;;;;488040;243;28622;-76
2023/06/15 03:39:13;;;;;;;5.13;4.63;;;12.20;99.90;;;;;;488074;243;28550;-76
2023/06/15 03:41:14;;;;;;;5.47;4.97;;;12.20;99.90;;;;;;488066;243;28713;-76
2023/06/15 03:43:16;;;;;;;5.30;4.63;;;12.10;99.90;;;;;;488057;243;28206;-76
2023/06/15 03:45:20;;;;;;;4.43;4.03;;;12.10;99.90;;;;;;488119;243;28444;-76
2023/06/15 03:47:18;;;;;;;5.83;5.23;;;12.10;99.90;;;;;;487763;243;28179;-76
2023/06/15 03:49:19;;;;;;;4.87;4.43;;;12.10;99.90;;;;;;488075;243;28331;-76
2023/06/15 03:51:21;;;;;;;4.00;3.50;;;12.20;99.90;;;;;;488062;243;28829;-76
2023/06/15 03:53:22;;;;;;;5.20;4.70;;;12.20;99.90;;;;;;488079;243;29008;-76
2023/06/15 03:55:23;;;;;;;7.07;4.27;;;12.20;99.90;;;;;;488091;243;28826;-75
2023/06/15 03:57:25;;;;;;;4.60;4.20;;;12.20;99.90;;;;;;488095;243;28944;-77
2023/06/15 03:59:26;;;;;;;5.47;4.97;;;12.20;99.90;;;;;;488047;243;28364;-76
2023/06/15 04:01:27;;;;;;;4.50;3.90;;;12.10;99.90;;;;;;488033;243;28168;-76
2023/06/15 04:03:28;;;;;;;5.63;4.37;;;12.10;99.90;;;;;;488023;243;28390;-77
2023/06/15 04:05:29;;;;;;;4.73;4.33;;;12.10;99.90;;;;;;488083;243;28304;-76
2023/06/15 04:07:31;;;;;;;4.90;4.47;;;12.10;99.90;;;;;;488039;243;28181;-76
2023/06/15 04:09:32;;;;;;;5.20;4.70;;;12.10;99.90;;;;;;488085;243;28223;-76
2023/06/15 04:11:33;;;;;;;7.50;4.57;;;12.10;99.90;;;;;;488083;243;28344;-76
2023/06/15 04:13:36;;;;;;;6.07;5.50;;;;;;;;;;488069;243;28393;-76
2023/06/15 04:15:37;;;;;;;5.03;4.53;;;11.70;99.90;;;;;;488134;243;26612;-76
2023/06/15 04:17:38;;;;;;;4.77;4.37;;;11.70;99.90;;;;;;488109;243;28210;-76
2023/06/15 04:19:39;;;;;;;5.00;4.60;;;11.50;99.90;;;;;;488080;243;28173;-76
2023/06/15 04:21:41;;;;;;;5.30;4.80;;;11.60;99.90;;;;;;488040;243;28842;-76
2023/06/15 04:23:43;;;;;;;5.60;4.70;;;11.60;99.90;;;;;;488080;243;28198;-76
2023/06/15 04:25:43;;;;;;;5.40;4.90;;;11.60;99.90;;;;;;488032;243;28309;-76
2023/06/15 04:27:44;;;;;;;4.87;4.47;;;11.60;99.90;;;;;;488082;243;28332;-76
2023/06/15 04:29:49;;;;;;;8.63;5.27;;;;;;;;;;488068;243;29244;-75
2023/06/15 04:31:54;;;;;;;4.50;4.20;;;11.70;99.90;;;;;;487918;243;26491;-76
2023/06/15 04:33:49;;;;;;;5.27;4.63;;;11.60;99.90;;;;;;487554;243;28796;-76
2023/06/15 04:35:51;;;;;;;4.83;4.43;;;11.80;99.90;;;;;;488106;243;28325;-76
2023/06/15 04:37:52;;;;;;;4.97;4.47;;;11.90;99.90;;;;;;488095;243;28252;-76
2023/06/15 04:39:53;;;;;;;4.80;4.40;;;12.00;99.90;;;;;;488042;243;28220;-76
2023/06/15 04:41:57;;;;;;;5.00;4.50;;;12.20;99.90;;;;;;488034;243;29533;-76
2023/06/15 04:43:56;;;;;;;4.80;4.40;;;12.40;99.90;;;;;;487873;243;28703;-76
2023/06/15 04:45:57;;;;;;;5.00;4.50;;;12.50;99.90;;;;;;488068;243;28693;-77
2023/06/15 04:47:58;;;;;;;5.40;4.90;;;12.70;99.90;;;;;;488071;243;28346;-76
2023/06/15 04:49:59;;;;;;;4.93;4.43;;;12.80;99.90;;;;;;488067;243;28526;-75
2023/06/15 04:52:01;;;;;;;7.60;5.37;;;12.90;99.90;;;;;;488072;243;28197;-76
2023/06/15 04:54:02;;;;;;;6.07;5.50;;;12.90;99.90;;;;;;488054;243;28405;-76
2023/06/15 04:56:03;;;;;;;5.83;4.87;;;12.90;99.90;;;;;;487951;243;28550;-76
2023/06/15 04:58:06;;;;;;;5.30;4.77;;;13.00;99.90;;;;;;488004;243;28348;-76
2023/06/15 05:00:10;;;;;;;4.97;4.57;;;13.10;99.90;;;;;;487953;243;28838;-77
2023/06/15 05:02:10;;;;;;;6.60;5.03;;;13.10;99.90;;;;;;487929;243;28535;-77
2023/06/15 05:04:11;;;;;;;6.90;5.40;;;13.10;99.90;;;;;;488053;243;28914;-76
2023/06/15 05:06:12;;;;;;;5.17;4.70;;;13.10;99.90;;;;;;488060;243;28431;-77
2023/06/15 05:08:16;;;;;;;4.37;4.07;;;13.20;99.90;;;;;;488072;243;28866;-76
2023/06/15 05:10:18;;;;;;;5.23;4.10;;;13.30;99.90;;;;;;488069;243;28924;-76
2023/06/15 05:12:19;;;;;;;7.50;4.50;;;13.30;99.90;;;;;;488033;243;28500;-75
2023/06/15 05:14:20;;;;;;;4.83;4.40;;;13.70;99.90;;;;;;488062;243;28432;-76
2023/06/15 05:16:21;;;;;;;4.33;4.03;;;13.90;99.90;;;;;;488092;243;28424;-76
2023/06/15 05:18:23;;;;;;;8.97;4.77;;;13.90;99.90;;;;;;488105;243;28482;-76
2023/06/15 05:20:24;;;;;;;4.50;4.10;;;14.10;99.90;;;;;;488093;243;28878;-77
2023/06/15 05:22:25;;;;;;;5.33;3.97;;;14.30;99.90;;;;;;488109;243;28811;-76
2023/06/15 05:24:26;;;;;;;3.93;3.53;;;14.40;99.90;;;;;;488084;243;28852;-76
2023/06/15 05:26:28;;;;;;;4.07;3.63;;;14.50;99.90;;;;;;488098;243;30022;-75
2023/06/15 05:28:29;;;;;;;6.40;4.10;;;14.60;99.90;;;;;;488135;243;29284;-76
2023/06/15 05:30:30;;;;;;;6.37;4.37;;;14.70;99.90;;;;;;488092;243;29343;-77
2023/06/15 05:32:37;;;;;;;4.40;3.70;;;14.70;99.90;;;;;;488117;243;28801;-76
2023/06/15 05:34:33;;;;;;;4.13;3.83;;;14.80;99.90;;;;;;487631;243;28833;-77
2023/06/15 05:36:34;;;;;;;4.87;3.93;;;14.80;99.90;;;;;;488079;243;28923;-76
2023/06/15 05:38:35;;;;;;;4.40;4.10;;;14.90;99.90;;;;;;488079;243;28871;-76
2023/06/15 05:40:36;;;;;;;7.27;3.67;;;14.90;99.90;;;;;;488076;242;28869;-76
2023/06/15 05:42:38;;;;;;;3.90;3.60;;;15.00;99.90;;;;;;488098;243;28803;-76
2023/06/15 05:44:39;;;;;;;4.57;4.07;;;15.00;99.90;;;;;;488092;243;28965;-75
2023/06/15 05:46:40;;;;;;;3.80;3.50;;;15.00;99.90;;;;;;488068;243;28792;-76
2023/06/15 05:48:41;;;;;;;4.67;4.13;;;15.10;99.90;;;;;;488081;243;28968;-76
2023/06/15 05:50:43;;;;;;;4.37;4.03;;;15.10;99.90;;;;;;488100;243;29332;-76
2023/06/15 05:52:44;;;;;;;6.90;4.37;;;15.20;99.90;;;;;;488113;243;29427;-76
2023/06/15 05:54:45;;;;;;;8.00;4.47;;;15.20;99.90;;;;;;488094;243;29348;-76
2023/06/15 05:56:46;;;;;;;4.13;3.83;;;15.30;99.90;;;;;;488054;243;29290;-75
2023/06/15 05:58:48;;;;;;;4.93;4.20;;;15.30;99.90;;;;;;488056;243;28901;-76
2023/06/15 06:00:49;;;;;;;4.10;3.67;;;15.40;99.90;;;;;;488117;243;28843;-76
2023/06/15 06:02:50;;;;;;;4.80;4.27;;;15.40;99.90;;;;;;488119;243;28787;-76
2023/06/15 06:04:51;;;;;;;4.00;3.70;;;15.40;99.90;;;;;;488094;243;28949;-76
2023/06/15 06:06:53;;;;;;;4.83;3.87;;;15.40;99.90;;;;;;488062;243;28888;-75
2023/06/15 06:08:54;;;;;;;5.80;4.27;;;15.50;99.90;;;;;;488088;243;28957;-76
2023/06/15 06:10:55;;;;;;;4.30;3.90;;;15.60;99.90;;;;;;488093;243;29317;-77
2023/06/15 06:12:56;;;;;;;4.57;4.17;;;15.60;99.90;;;;;;488099;243;28800;-77
2023/06/15 06:14:58;;;;;;;5.20;4.70;;;15.60;99.90;;;;;;488114;243;28976;-76
2023/06/15 06:16:59;;;;;;;6.87;4.00;;;15.70;99.90;;;;;;488098;243;29271;-75
2023/06/15 06:19:00;;;;;;;5.00;3.77;;;15.70;99.90;;;;;;488128;243;29316;-76
2023/06/15 06:21:01;;;;;;;7.20;4.23;;;15.80;99.90;;;;;;488139;243;29518;-76
2023/06/15 06:23:03;;;;;;;5.07;4.13;;;15.80;99.90;;;;;;488095;243;28798;-75
2023/06/15 06:25:04;;;;;;;4.30;4.00;;;15.90;99.90;;;;;;488096;243;28879;-76
2023/06/15 06:27:05;;;;;;;5.43;3.97;;;16.00;99.90;;;;;;488122;243;28800;-76
2023/06/15 06:29:06;;;;;;;4.27;3.87;;;16.00;99.90;;;;;;488095;243;28838;-75
2023/06/15 06:31:08;;;;;;;3.77;3.47;;;16.10;99.90;;;;;;488086;243;29197;-75
2023/06/15 06:33:09;;;;;;;4.67;4.27;;;16.20;99.90;;;;;;488103;243;28820;-76
2023/06/15 06:35:10;;;;;;;5.40;4.40;;;16.30;99.90;;;;;;488106;243;28909;-76
2023/06/15 06:37:11;;;;;;;4.60;4.10;;;16.40;99.90;;;;;;488103;243;28851;-76
2023/06/15 06:39:13;;;;;;;5.07;4.57;;;16.40;99.90;;;;;;488100;243;28855;-76
2023/06/15 06:41:14;;;;;;;4.43;4.07;;;16.40;99.90;;;;;;488132;243;29380;-76
2023/06/15 06:43:15;;;;;;;4.13;3.73;;;16.50;99.90;;;;;;488113;243;29382;-76
2023/06/15 06:45:16;;;;;;;4.33;3.93;;;16.60;99.90;;;;;;488123;243;29298;-76
2023/06/15 06:47:18;;;;;;;5.90;4.53;;;16.60;99.90;;;;;;488109;243;29254;-76
2023/06/15 06:49:19;;;;;;;5.53;4.20;;;16.70;99.90;;;;;;488090;243;28853;-75
2023/06/15 06:51:20;;;;;;;4.30;4.00;;;16.80;99.90;;;;;;488067;243;28853;-75
2023/06/15 06:53:21;;;;;;;4.30;4.00;;;16.70;99.90;;;;;;488099;243;28800;-76
2023/06/15 06:55:23;;;;;;;4.20;3.80;;;16.80;99.90;;;;;;488091;243;28826;-75
2023/06/15 06:57:24;;;;;;;4.73;4.13;;;16.90;99.90;;;;;;488096;243;28837;-75
2023/06/15 06:59:25;;;;;;;4.57;4.17;;;16.90;99.90;;;;;;488062;243;28912;-77
2023/06/15 07:01:27;;;;;;;4.50;4.10;;;16.90;99.90;;;;;;488079;243;28820;-76
2023/06/15 07:03:28;;;;;;;4.27;3.97;;;17.00;99.90;;;;;;488062;243;28817;-76
2023/06/15 07:05:29;;;;;;;4.90;4.50;;;17.00;99.90;;;;;;488098;243;29467;-76
2023/06/15 07:07:30;;;;;;;5.87;4.73;;;17.10;99.90;;;;;;488075;243;29260;-76
2023/06/15 07:09:31;;;;;;;4.20;3.90;;;17.30;99.90;;;;;;488057;243;29407;-77
2023/06/15 07:11:33;;;;;;;4.67;4.07;;;17.30;99.90;;;;;;488066;243;29389;-75
2023/06/15 07:13:34;;;;;;;5.30;4.37;;;17.30;99.90;;;;;;488021;243;28845;-76
2023/06/15 07:15:35;;;;;;;5.50;4.10;;;17.40;99.90;;;;;;488091;243;28933;-77
2023/06/15 07:17:36;;;;;;;9.20;4.00;;;17.50;99.90;;;;;;488084;243;28854;-75
2023/06/15 07:19:38;;;;;;;4.30;4.00;;;17.40;99.90;;;;;;488051;243;28931;-76
2023/06/15 07:21:39;;;;;;;5.73;4.13;;;17.40;99.90;;;;;;488071;243;28872;-75
2023/06/15 07:23:40;;;;;;;4.90;4.50;;;17.70;99.90;;;;;;488019;243;28848;-75
2023/06/15 07:25:41;;;;;;;5.67;4.73;;;17.70;99.90;;;;;;488081;243;28949;-77
2023/06/15 07:27:43;;;;;;;4.30;3.90;;;17.80;99.90;;;;;;488012;243;28834;-76
2023/06/15 07:29:44;;;;;;;7.53;3.93;;;17.80;99.90;;;;;;487996;243;28877;-75
2023/06/15 07:31:46;;;;;;;4.40;4.00;;;17.90;99.90;;;;;;488005;243;29267;-76
2023/06/15 07:33:46;;;;;;;4.50;4.10;;;17.80;99.90;;;;;;487988;243;29415;-76
2023/06/15 07:35:48;;;;;;;4.73;4.17;;;18.00;99.90;;;;;;488105;243;29460;-77
2023/06/15 07:37:49;;;;;;;5.50;4.57;;;18.00;99.90;;;;;;488060;243;28822;-76
2023/06/15 07:39:50;;;;;;;4.77;4.37;;;18.20;99.90;;;;;;488051;243;28915;-76
2023/06/15 07:41:51;;;;;;;4.27;3.87;;;18.30;99.70;;;;;;488015;243;28895;-76
2023/06/15 07:43:53;;;;;;;4.90;4.40;;;18.30;99.90;;;;;;488058;243;28852;-76
2023/06/15 07:45:54;;;;;;;6.17;4.33;;;18.40;99.60;;;;;;488103;243;29186;-77
2023/06/15 07:47:55;;;;;;;4.53;3.87;;;18.40;99.50;;;;;;488098;243;28898;-76
2023/06/15 07:49:56;;;;;;;5.00;4.50;;;18.40;99.20;;;;;;488078;243;28934;-76
2023/06/15 07:51:58;;;;;;;5.43;4.20;;;18.40;99.30;;;;;;488066;243;28885;-76
2023/06/15 07:53:59;;;;;;;4.13;3.73;;;18.40;99.00;;;;;;488064;243;28856;-76
2023/06/15 07:56:00;;;;;;;4.67;4.07;;;18.50;98.90;;;;;;488085;243;29331;-77
2023/06/15 07:58:01;;;;;;;5.37;4.10;;;18.60;99.10;;;;;;488073;243;29295;-75
2023/06/15 08:00:04;;;;;;;5.03;3.97;;;18.70;98.30;;;;;;488092;243;29339;-76
2023/06/15 08:02:04;;;;;;;5.13;4.53;;;18.80;98.60;;;;;;487979;243;29333;-76
2023/06/15 08:04:05;;;;;;;4.80;4.00;;;19.10;98.10;;;;;;488034;243;28947;-76
2023/06/15 08:06:06;;;;;;;6.67;4.30;;;19.20;98.00;;;;;;488052;243;28855;-76
2023/06/15 08:08:08;;;;;;;5.10;4.30;;;19.10;97.50;;;;;;488051;243;28896;-75
2023/06/15 08:10:09;;;;;;;5.87;4.20;;;19.20;98.00;;;;;;488062;243;28833;-75
2023/06/15 08:12:10;;;;;;;6.00;4.20;;;19.10;97.70;;;;;;488055;243;28889;-76
2023/06/15 08:14:12;;;;;;;4.97;4.20;;;19.30;97.50;;;;;;488030;243;28876;-76
2023/06/15 08:16:13;;;;;;;4.73;4.17;;;19.10;97.50;;;;;;488041;243;29323;-76
2023/06/15 08:18:14;;;;;;;4.40;4.00;;;19.30;97.50;;;;;;488072;243;28910;-75
2023/06/15 08:20:15;;;;;;;4.63;3.97;;;19.40;97.20;;;;;;488039;243;29360;-75
2023/06/15 08:22:16;;;;;;;5.40;4.30;;;19.30;97.20;;;;;;488032;243;29276;-76
2023/06/15 08:24:18;;;;;;;5.77;3.63;;;19.30;96.90;;;;;;488031;243;29327;-77
2023/06/15 08:26:20;;;;;;;8.07;4.10;;;19.30;97.10;;;;;;488042;243;29243;-76
2023/06/15 08:28:20;;;;;;;4.67;4.20;;;19.40;97.00;;;;;;488034;243;28829;-75
2023/06/15 08:30:21;;;;;;;5.33;4.47;;;19.60;97.40;;;;;;488036;243;28919;-76
2023/06/15 08:32:23;;;;;;;12.33;4.90;;;19.40;96.60;;;;;;488074;243;28913;-76
2023/06/15 08:34:24;;;;;;;4.70;4.27;;;19.50;96.80;;;;;;488035;243;28927;-75
2023/06/15 08:36:25;;;;;;;4.90;4.50;;;19.60;96.80;;;;;;488048;243;28843;-76
2023/06/15 08:38:26;;;;;;;4.00;3.50;;;19.60;96.80;;;;;;488060;243;28842;-75
2023/06/15 08:40:28;;;;;;;5.10;4.40;;;19.70;96.10;;;;;;488029;243;29193;-76
2023/06/15 08:42:29;;;;;;;5.10;4.70;;;19.60;95.70;;;;;;488037;243;28788;-76
2023/06/15 08:44:31;;;;;;;4.37;4.07;;;19.80;95.90;;;;;;488009;243;29374;-75
2023/06/15 08:46:32;;;;;;;5.03;4.07;;;20.00;94.60;;;;;;487986;243;30060;-75
2023/06/15 08:48:33;;;;;;;14.50;5.23;;;20.10;94.90;;;;;;488063;243;29321;-75
2023/06/15 08:50:34;;;;;;;4.73;4.23;;;20.20;95.20;;;;;;488049;243;29424;-77
2023/06/15 08:52:35;;;;;;;4.20;3.80;;;20.20;94.90;;;;;;487983;243;28824;-76
2023/06/15 08:54:41;;;;;;;5.00;3.93;;;20.10;93.80;;;;;;488006;243;28871;-76
2023/06/15 08:56:38;;;;;;;3.53;3.23;;;20.00;94.70;;;;;;487609;243;28844;-76
2023/06/15 08:58:39;;;;;;;4.97;4.20;;;20.00;94.90;;;;;;488087;243;28785;-76
2023/06/15 09:00:40;;;;;;;8.13;3.90;;;20.00;93.80;;;;;;488064;243;28835;-76
2023/06/15 09:02:41;;;;;;;4.97;4.20;;;20.20;93.40;;;;;;488082;243;28816;-76
2023/06/15 09:04:43;;;;;;;4.00;3.70;;;20.10;93.50;;;;;;488068;243;28931;-75
2023/06/15 09:06:44;;;;;;;5.37;3.90;;;20.10;93.80;;;;;;488062;243;28831;-75
2023/06/15 09:08:46;;;;;;;4.30;3.90;;;20.20;93.60;;;;;;488082;243;29270;-76
2023/06/15 09:10:46;;;;;;;4.67;3.73;;;20.30;93.90;;;;;;488043;243;29316;-76
2023/06/15 09:12:48;;;;;;;4.10;3.80;;;20.50;92.30;;;;;;488047;243;29260;-76
2023/06/15 09:14:49;;;;;;;4.20;3.87;;;20.50;92.20;;;;;;488035;243;29341;-76
2023/06/15 09:16:53;;;;;;;4.30;3.90;;;20.50;92.20;;;;;;488009;243;28847;-75
2023/06/15 09:18:52;;;;;;;7.50;3.93;;;20.30;92.30;;;;;;487735;243;28819;-77
2023/06/15 09:20:53;;;;;;;4.50;3.60;;;20.40;92.50;;;;;;488037;243;28963;-77
2023/06/15 09:22:54;;;;;;;4.33;3.93;;;20.80;91.30;;;;;;488039;243;28828;-75
2023/06/15 09:24:55;;;;;;;4.37;3.97;;;20.70;91.80;;;;;;488019;243;28935;-76
2023/06/15 09:26:57;;;;;;;7.70;3.40;;;20.70;91.10;;;;;;488001;243;28804;-76
2023/06/15 09:28:58;;;;;;;5.53;4.13;;;20.60;90.00;;;;;;488005;243;28935;-76
2023/06/15 09:31:00;;;;;;;4.57;4.03;;;20.50;90.70;;;;;;488030;243;28874;-77
2023/06/15 09:33:00;;;;;;;4.30;3.90;;;20.50;90.60;;;;;;488037;243;28879;-76
2023/06/15 09:35:03;;;;;;;4.40;4.10;;;20.50;91.60;;;;;;488019;243;29437;-76
2023/06/15 09:37:03;;;;;;;4.17;3.80;;;20.60;90.00;;;;;;487876;243;30099;-76
2023/06/15 09:39:04;;;;;;;7.83;4.00;;;20.90;90.80;;;;;;488014;243;29426;-77
2023/06/15 09:41:05;;;;;;;3.50;3.10;;;20.90;88.60;;;;;;488046;243;28881;-77
2023/06/15 09:43:07;;;;;;;4.30;3.53;;;20.90;89.00;;;;;;488026;243;28774;-76
2023/06/15 09:45:08;;;;;;;3.47;3.17;;;20.80;87.00;;;;;;488000;243;28838;-76
2023/06/15 09:47:09;;;;;;;4.30;3.50;;;20.80;87.40;;;;;;488049;243;28801;-76
2023/06/15 09:49:10;;;;;;;4.47;3.17;;;20.90;86.70;;;;;;488046;243;28900;-76
2023/06/15 09:51:12;;;;;;;4.17;2.97;;;20.90;83.90;;;;;;488024;243;28871;-78
2023/06/15 09:53:13;;;;;;;5.50;3.77;;;21.00;84.00;;;;;;488058;243;28888;-76
2023/06/15 09:55:15;;;;;;;4.13;3.57;;;21.00;84.50;;;;;;488003;243;28859;-77
2023/06/15 09:57:19;;;;;;;5.53;3.57;;;20.80;85.20;;;;;;488005;243;28797;-76
2023/06/15 09:59:20;;;;;;;4.20;3.80;;;21.10;84.00;;;;;;487982;243;28800;-77
2023/06/15 10:01:20;;;;;;;4.80;3.67;;;21.20;82.00;;;;;;488002;243;28922;-75
2023/06/15 10:03:22;;;;;;;4.30;3.90;;;21.00;84.20;;;;;;488050;243;29461;-76
2023/06/15 10:05:23;;;;;;;5.70;4.20;;;20.60;85.10;;;;;;488015;243;29247;-75
2023/06/15 10:07:24;;;;;;;4.60;4.20;;;20.50;86.00;;;;;;488049;243;29446;-77
2023/06/15 10:09:28;;;;;;;4.10;3.43;;;20.80;87.30;;;;;;488047;243;29284;-75
2023/06/15 10:11:27;;;;;;;4.53;4.13;;;21.00;85.20;;;;;;487854;243;28830;-75
2023/06/15 10:13:28;;;;;;;4.00;3.40;;;21.20;85.00;;;;;;488053;243;28836;-76
2023/06/15 10:15:29;;;;;;;5.20;4.07;;;21.20;83.20;;;;;;488085;243;28875;-76
2023/06/15 10:17:35;;;;;;;3.50;3.20;;;21.50;84.20;;;;;;488084;243;28839;-77
2023/06/15 10:19:40;;;;;;;5.13;3.20;;;21.60;82.80;;;;;;487945;243;28956;-77
2023/06/15 10:21:36;;;;;;;3.53;3.23;;;21.50;82.80;;;;;;487468;243;28822;-76
2023/06/15 10:23:37;;;;;;;3.87;3.57;;;21.40;82.90;;;;;;487997;243;28863;-76
2023/06/15 10:25:38;;;;;;;4.03;3.47;;;21.30;82.50;;;;;;488054;243;29236;-77
2023/06/15 10:27:40;;;;;;;4.67;3.50;;;21.30;82.50;;;;;;488050;243;28891;-75
2023/06/15 10:29:41;;;;;;;5.77;3.60;;;21.50;83.60;;;;;;488042;243;28844;-76
2023/06/15 10:31:42;;;;;;;4.60;3.10;;;21.70;82.70;;;;;;488034;243;29355;-76